Aérodrome :
LOGIN :

S'inscrire | Disclaimer

   EN    FR    IT 

 










Légende :    VFR   VFR Marginal   IFR   IFR Intensif   IFR Très Intensif
Visi : 
Plafond : 
>= 8 km
>= 3000ft
5 à 8 km
1000 à 3000 ft
1500m à 5 km
500 à 1000 ft
800 à 1500m
200 à 500 ft
< 800m
< 200 ft
Symboles :   Orages  Brouillard  Fortes neiges  Fortes précipitations  Vent > 20 kt
SIGMETs :   Divers  Orages  Givrage  Turbulence  Onde Orograph.  Cendres Volcan.







- Altitude de l'aérodrome : 309 ft
- Code IATA : FNI
- Voir les cartes d'approche


LFTW - Nîmes Garons

DERNIER METAR :
  • 261200Z AUTO 35013KT 320V040 CAVOK 29/09 Q1012 TEMPO 35017G27KT

METARs EXPIRÉS :
  • 261130Z AUTO 35015G26KT 310V020 CAVOK 28/09 Q1012 NOSIG
  • 261100Z AUTO 35016G27KT 320V020 CAVOK 28/10 Q1012 NOSIG
  • 261030Z AUTO 34012KT 290V020 CAVOK 27/11 Q1013 TEMPO 35017G27KT
  • 261000Z AUTO 36014KT 330V030 CAVOK 26/10 Q1013 TEMPO 35017G27KT
  • 260930Z AUTO 35013KT 310V030 CAVOK 27/11 Q1013 TEMPO 35017G27KT

TAF TAF LFTW
Valide du 26 à 09h jusqu'au 27 à 09h UTC


260800Z 2609/2709 34012KT CAVOK
TEMPO 2610/2618 35017G27KT
Pas de NOTAMs connus pour ce terrain.



MET'MAP, la Météo Aéronautique d'un coup d'oeil ! - Copyright ORBIFLY Décembre 2007 - Disclaimer

ORBIFLY MET'MAP TEAM :

Programmation & Développement : Alexandra Zaïnal
Conception & Développement : Baudouin d'Aumeries
Co-Programmation & Développement : Marc-Olivier Méhu
Soutien technique & logistique : Manuel Goepfert

Contact : metmap@orbifly.com




SOURCES & CREDITS :

   NOAA